sensor_id;sensor_type;location;lat;lon;timestamp;temperature;humidity
65652;SHT30;52350;51.546;7.002;2022-09-12T00:00:00;12.37;93.84
65652;SHT30;52350;51.546;7.002;2022-09-12T00:02:26;12.37;93.91
65652;SHT30;52350;51.546;7.002;2022-09-12T00:04:51;12.37;94.00
65652;SHT30;52350;51.546;7.002;2022-09-12T00:07:17;12.40;94.08
65652;SHT30;52350;51.546;7.002;2022-09-12T00:09:42;12.38;94.05
65652;SHT30;52350;51.546;7.002;2022-09-12T00:12:08;12.38;93.93
65652;SHT30;52350;51.546;7.002;2022-09-12T00:14:34;12.33;93.94
65652;SHT30;52350;51.546;7.002;2022-09-12T00:17:00;12.37;93.90
65652;SHT30;52350;51.546;7.002;2022-09-12T00:19:27;12.35;94.00
65652;SHT30;52350;51.546;7.002;2022-09-12T00:21:55;12.34;93.97
65652;SHT30;52350;51.546;7.002;2022-09-12T00:24:21;12.30;93.79
65652;SHT30;52350;51.546;7.002;2022-09-12T00:26:47;12.28;93.84
65652;SHT30;52350;51.546;7.002;2022-09-12T00:29:18;12.30;93.94
65652;SHT30;52350;51.546;7.002;2022-09-12T00:31:45;12.28;94.05
65652;SHT30;52350;51.546;7.002;2022-09-12T00:34:12;12.27;94.03
65652;SHT30;52350;51.546;7.002;2022-09-12T00:36:38;12.30;94.12
65652;SHT30;52350;51.546;7.002;2022-09-12T00:39:05;12.34;94.00
65652;SHT30;52350;51.546;7.002;2022-09-12T00:41:36;12.28;93.66
65652;SHT30;52350;51.546;7.002;2022-09-12T00:46:42;12.18;93.70
65652;SHT30;52350;51.546;7.002;2022-09-12T00:49:18;12.14;93.83
65652;SHT30;52350;51.546;7.002;2022-09-12T00:57:22;12.12;93.67
65652;SHT30;52350;51.546;7.002;2022-09-12T01:00:06;12.09;93.77
65652;SHT30;52350;51.546;7.002;2022-09-12T01:02:43;12.09;93.72
65652;SHT30;52350;51.546;7.002;2022-09-12T01:05:11;12.06;93.68
65652;SHT30;52350;51.546;7.002;2022-09-12T01:07:38;12.00;93.71
65652;SHT30;52350;51.546;7.002;2022-09-12T01:10:07;12.01;93.76
65652;SHT30;52350;51.546;7.002;2022-09-12T01:12:37;12.00;93.81
65652;SHT30;52350;51.546;7.002;2022-09-12T01:15:05;12.00;93.84
65652;SHT30;52350;51.546;7.002;2022-09-12T01:17:50;11.93;93.82
65652;SHT30;52350;51.546;7.002;2022-09-12T01:32:13;11.92;94.06
65652;SHT30;52350;51.546;7.002;2022-09-12T01:34:48;11.87;94.08
65652;SHT30;52350;51.546;7.002;2022-09-12T01:37:30;11.89;94.18
65652;SHT30;52350;51.546;7.002;2022-09-12T01:40:18;11.89;94.10
65652;SHT30;52350;51.546;7.002;2022-09-12T01:43:16;11.85;93.88
65652;SHT30;52350;51.546;7.002;2022-09-12T01:46:16;11.85;93.68
65652;SHT30;52350;51.546;7.002;2022-09-12T01:48:51;11.79;93.69
65652;SHT30;52350;51.546;7.002;2022-09-12T01:51:29;11.76;93.73
65652;SHT30;52350;51.546;7.002;2022-09-12T01:54:09;11.76;93.73
65652;SHT30;52350;51.546;7.002;2022-09-12T01:56:42;11.71;93.66
65652;SHT30;52350;51.546;7.002;2022-09-12T02:02:08;11.66;93.68
65652;SHT30;52350;51.546;7.002;2022-09-12T02:04:50;11.65;93.71
65652;SHT30;52350;51.546;7.002;2022-09-12T02:07:52;11.71;93.85
65652;SHT30;52350;51.546;7.002;2022-09-12T02:10:28;11.66;93.63
65652;SHT30;52350;51.546;7.002;2022-09-12T02:13:02;11.65;93.39
65652;SHT30;52350;51.546;7.002;2022-09-12T02:15:39;11.59;93.35
65652;SHT30;52350;51.546;7.002;2022-09-12T02:18:12;11.58;93.34
65652;SHT30;52350;51.546;7.002;2022-09-12T02:20:41;11.57;93.34
65652;SHT30;52350;51.546;7.002;2022-09-12T02:23:13;11.54;93.37
65652;SHT30;52350;51.546;7.002;2022-09-12T02:25:48;11.52;93.48
65652;SHT30;52350;51.546;7.002;2022-09-12T02:28:22;11.51;93.51
65652;SHT30;52350;51.546;7.002;2022-09-12T02:37:18;11.45;93.49
65652;SHT30;52350;51.546;7.002;2022-09-12T02:39:58;11.41;93.51
65652;SHT30;52350;51.546;7.002;2022-09-12T02:42:25;11.41;93.58
65652;SHT30;52350;51.546;7.002;2022-09-12T02:44:53;11.41;93.74
65652;SHT30;52350;51.546;7.002;2022-09-12T02:47:37;11.38;93.82
65652;SHT30;52350;51.546;7.002;2022-09-12T02:50:08;11.39;93.94
65652;SHT30;52350;51.546;7.002;2022-09-12T02:52:34;11.47;94.01
65652;SHT30;52350;51.546;7.002;2022-09-12T02:55:02;11.44;93.77
65652;SHT30;52350;51.546;7.002;2022-09-12T02:57:30;11.42;93.68
65652;SHT30;52350;51.546;7.002;2022-09-12T02:59:59;11.39;93.68
65652;SHT30;52350;51.546;7.002;2022-09-12T03:02:42;11.38;93.70
65652;SHT30;52350;51.546;7.002;2022-09-12T03:11:46;11.38;94.22
65652;SHT30;52350;51.546;7.002;2022-09-12T03:14:25;11.44;94.29
65652;SHT30;52350;51.546;7.002;2022-09-12T03:17:38;11.38;93.98
65652;SHT30;52350;51.546;7.002;2022-09-12T03:26:11;11.31;93.98
65652;SHT30;52350;51.546;7.002;2022-09-12T03:28:41;11.30;94.05
65652;SHT30;52350;51.546;7.002;2022-09-12T03:31:14;11.30;94.20
65652;SHT30;52350;51.546;7.002;2022-09-12T03:33:41;11.28;94.33
65652;SHT30;52350;51.546;7.002;2022-09-12T03:36:23;11.34;94.43
65652;SHT30;52350;51.546;7.002;2022-09-12T03:38:50;11.34;94.52
65652;SHT30;52350;51.546;7.002;2022-09-12T03:41:16;11.38;94.34
65652;SHT30;52350;51.546;7.002;2022-09-12T03:43:43;11.31;94.11
65652;SHT30;52350;51.546;7.002;2022-09-12T03:46:09;11.31;94.02
65652;SHT30;52350;51.546;7.002;2022-09-12T03:48:35;11.31;94.02
65652;SHT30;52350;51.546;7.002;2022-09-12T03:51:02;11.28;94.17
65652;SHT30;52350;51.546;7.002;2022-09-12T03:53:30;11.26;94.16
65652;SHT30;52350;51.546;7.002;2022-09-12T03:55:56;11.28;94.09
65652;SHT30;52350;51.546;7.002;2022-09-12T03:58:23;11.24;94.11
65652;SHT30;52350;51.546;7.002;2022-09-12T04:00:49;11.23;94.18
65652;SHT30;52350;51.546;7.002;2022-09-12T04:03:15;11.23;94.29
65652;SHT30;52350;51.546;7.002;2022-09-12T04:05:41;11.23;94.38
65652;SHT30;52350;51.546;7.002;2022-09-12T04:08:06;11.23;94.38
65652;SHT30;52350;51.546;7.002;2022-09-12T04:10:32;11.24;94.27
65652;SHT30;52350;51.546;7.002;2022-09-12T04:12:57;11.21;94.25
65652;SHT30;52350;51.546;7.002;2022-09-12T04:15:23;11.24;94.32
65652;SHT30;52350;51.546;7.002;2022-09-12T04:17:49;11.20;94.36
65652;SHT30;52350;51.546;7.002;2022-09-12T04:20:14;11.21;94.34
65652;SHT30;52350;51.546;7.002;2022-09-12T04:22:40;11.23;94.31
65652;SHT30;52350;51.546;7.002;2022-09-12T04:25:06;11.19;94.23
65652;SHT30;52350;51.546;7.002;2022-09-12T04:27:33;11.20;94.11
65652;SHT30;52350;51.546;7.002;2022-09-12T04:29:59;11.23;94.17
65652;SHT30;52350;51.546;7.002;2022-09-12T04:32:28;11.17;94.20
65652;SHT30;52350;51.546;7.002;2022-09-12T04:34:55;11.17;94.21
65652;SHT30;52350;51.546;7.002;2022-09-12T04:37:21;11.20;94.27
65652;SHT30;52350;51.546;7.002;2022-09-12T04:39:48;11.17;94.18
65652;SHT30;52350;51.546;7.002;2022-09-12T04:42:15;11.16;94.20
65652;SHT30;52350;51.546;7.002;2022-09-12T04:44:40;11.17;94.18
65652;SHT30;52350;51.546;7.002;2022-09-12T04:47:06;11.14;94.14
65652;SHT30;52350;51.546;7.002;2022-09-12T04:49:32;11.11;94.07
65652;SHT30;52350;51.546;7.002;2022-09-12T04:51:58;11.11;94.06
65652;SHT30;52350;51.546;7.002;2022-09-12T04:54:24;11.07;94.08
65652;SHT30;52350;51.546;7.002;2022-09-12T04:56:50;11.11;94.19
65652;SHT30;52350;51.546;7.002;2022-09-12T04:59:18;11.14;94.19
65652;SHT30;52350;51.546;7.002;2022-09-12T05:01:45;11.16;94.09
65652;SHT30;52350;51.546;7.002;2022-09-12T05:04:11;11.16;94.04
65652;SHT30;52350;51.546;7.002;2022-09-12T05:06:38;11.14;94.16
65652;SHT30;52350;51.546;7.002;2022-09-12T05:09:06;11.20;94.20
65652;SHT30;52350;51.546;7.002;2022-09-12T05:11:34;11.28;94.29
65652;SHT30;52350;51.546;7.002;2022-09-12T05:14:02;11.24;94.14
65652;SHT30;52350;51.546;7.002;2022-09-12T05:16:28;11.26;94.05
65652;SHT30;52350;51.546;7.002;2022-09-12T05:18:55;11.30;94.01
65652;SHT30;52350;51.546;7.002;2022-09-12T05:21:22;11.32;94.00
65652;SHT30;52350;51.546;7.002;2022-09-12T05:23:51;11.35;93.98
65652;SHT30;52350;51.546;7.002;2022-09-12T05:26:17;11.37;93.94
65652;SHT30;52350;51.546;7.002;2022-09-12T05:28:45;11.38;93.94
65652;SHT30;52350;51.546;7.002;2022-09-12T05:31:17;11.44;93.99
65652;SHT30;52350;51.546;7.002;2022-09-12T05:33:47;11.48;94.00
65652;SHT30;52350;51.546;7.002;2022-09-12T05:36:16;11.55;94.02
65652;SHT30;52350;51.546;7.002;2022-09-12T05:38:47;11.62;94.10
65652;SHT30;52350;51.546;7.002;2022-09-12T05:41:21;11.68;94.09
65652;SHT30;52350;51.546;7.002;2022-09-12T05:43:52;11.73;94.07
65652;SHT30;52350;51.546;7.002;2022-09-12T05:46:25;11.82;94.21
65652;SHT30;52350;51.546;7.002;2022-09-12T05:48:55;11.93;94.20
65652;SHT30;52350;51.546;7.002;2022-09-12T05:51:27;12.06;94.40
65652;SHT30;52350;51.546;7.002;2022-09-12T05:54:05;12.18;94.35
65652;SHT30;52350;51.546;7.002;2022-09-12T05:56:35;12.34;94.39
65652;SHT30;52350;51.546;7.002;2022-09-12T05:59:05;12.51;94.53
65652;SHT30;52350;51.546;7.002;2022-09-12T06:01:36;12.68;94.44
65652;SHT30;52350;51.546;7.002;2022-09-12T06:04:04;12.82;94.43
65652;SHT30;52350;51.546;7.002;2022-09-12T06:06:33;12.92;94.49
65652;SHT30;52350;51.546;7.002;2022-09-12T06:09:01;13.04;94.35
65652;SHT30;52350;51.546;7.002;2022-09-12T06:11:30;13.18;94.53
65652;SHT30;52350;51.546;7.002;2022-09-12T06:13:58;13.27;94.54
65652;SHT30;52350;51.546;7.002;2022-09-12T06:16:30;13.40;94.61
65652;SHT30;52350;51.546;7.002;2022-09-12T06:19:03;13.51;94.65
65652;SHT30;52350;51.546;7.002;2022-09-12T06:21:31;13.62;94.62
65652;SHT30;52350;51.546;7.002;2022-09-12T06:23:58;13.71;94.37
65652;SHT30;52350;51.546;7.002;2022-09-12T06:26:24;13.79;94.54
65652;SHT30;52350;51.546;7.002;2022-09-12T06:28:53;13.86;94.59
65652;SHT30;52350;51.546;7.002;2022-09-12T06:31:22;13.96;94.59
65652;SHT30;52350;51.546;7.002;2022-09-12T06:33:54;14.02;94.88
65652;SHT30;52350;51.546;7.002;2022-09-12T06:36:26;14.10;94.80
65652;SHT30;52350;51.546;7.002;2022-09-12T06:38:56;14.17;94.84
65652;SHT30;52350;51.546;7.002;2022-09-12T06:41:24;14.25;94.77
65652;SHT30;52350;51.546;7.002;2022-09-12T06:43:50;14.35;94.78
65652;SHT30;52350;51.546;7.002;2022-09-12T06:46:16;14.48;94.56
65652;SHT30;52350;51.546;7.002;2022-09-12T06:48:42;14.58;94.51
65652;SHT30;52350;51.546;7.002;2022-09-12T06:51:13;14.71;94.49
65652;SHT30;52350;51.546;7.002;2022-09-12T06:53:41;14.83;94.34
65652;SHT30;52350;51.546;7.002;2022-09-12T06:56:17;14.97;94.32
65652;SHT30;52350;51.546;7.002;2022-09-12T06:58:44;15.07;94.13
65652;SHT30;52350;51.546;7.002;2022-09-12T07:03:42;15.31;92.78
65652;SHT30;52350;51.546;7.002;2022-09-12T07:06:14;15.41;92.45
65652;SHT30;52350;51.546;7.002;2022-09-12T07:08:41;15.51;92.35
65652;SHT30;52350;51.546;7.002;2022-09-12T07:11:20;15.59;92.05
65652;SHT30;52350;51.546;7.002;2022-09-12T07:13:49;15.66;90.59
65652;SHT30;52350;51.546;7.002;2022-09-12T07:16:17;15.75;90.77
65652;SHT30;52350;51.546;7.002;2022-09-12T07:18:43;15.73;90.34
65652;SHT30;52350;51.546;7.002;2022-09-12T07:21:13;15.81;90.36
65652;SHT30;52350;51.546;7.002;2022-09-12T07:23:39;15.92;90.41
65652;SHT30;52350;51.546;7.002;2022-09-12T07:26:06;16.02;90.56
65652;SHT30;52350;51.546;7.002;2022-09-12T07:28:34;16.07;90.76
65652;SHT30;52350;51.546;7.002;2022-09-12T07:31:20;16.22;90.57
65652;SHT30;52350;51.546;7.002;2022-09-12T07:33:50;16.30;90.46
65652;SHT30;52350;51.546;7.002;2022-09-12T07:36:18;16.41;90.21
65652;SHT30;52350;51.546;7.002;2022-09-12T07:38:46;16.47;87.73
65652;SHT30;52350;51.546;7.002;2022-09-12T07:43:43;16.54;86.40
65652;SHT30;52350;51.546;7.002;2022-09-12T07:46:10;16.61;86.38
65652;SHT30;52350;51.546;7.002;2022-09-12T07:48:37;16.64;86.08
65652;SHT30;52350;51.546;7.002;2022-09-12T07:51:05;16.65;86.14
65652;SHT30;52350;51.546;7.002;2022-09-12T07:53:39;16.68;85.95
65652;SHT30;52350;51.546;7.002;2022-09-12T07:56:08;16.72;86.11
65652;SHT30;52350;51.546;7.002;2022-09-12T07:58:36;16.76;86.03
65652;SHT30;52350;51.546;7.002;2022-09-12T08:01:15;16.84;86.09
65652;SHT30;52350;51.546;7.002;2022-09-12T08:03:45;17.00;85.59
65652;SHT30;52350;51.546;7.002;2022-09-12T08:06:15;17.10;85.45
65652;SHT30;52350;51.546;7.002;2022-09-12T08:08:46;17.17;85.54
65652;SHT30;52350;51.546;7.002;2022-09-12T08:11:15;17.18;85.54
65652;SHT30;52350;51.546;7.002;2022-09-12T08:13:43;17.28;85.39
65652;SHT30;52350;51.546;7.002;2022-09-12T08:16:17;17.39;84.40
65652;SHT30;52350;51.546;7.002;2022-09-12T08:18:45;17.49;84.67
65652;SHT30;52350;51.546;7.002;2022-09-12T08:21:13;17.65;84.24
65652;SHT30;52350;51.546;7.002;2022-09-12T08:23:45;17.76;84.08
65652;SHT30;52350;51.546;7.002;2022-09-12T08:26:12;17.85;83.22
65652;SHT30;52350;51.546;7.002;2022-09-12T08:28:38;17.90;82.18
65652;SHT30;52350;51.546;7.002;2022-09-12T08:31:10;17.94;83.15
65652;SHT30;52350;51.546;7.002;2022-09-12T08:33:38;18.01;83.35
65652;SHT30;52350;51.546;7.002;2022-09-12T08:36:10;18.24;83.01
65652;SHT30;52350;51.546;7.002;2022-09-12T08:38:39;18.53;82.73
65652;SHT30;52350;51.546;7.002;2022-09-12T08:41:24;18.87;81.41
65652;SHT30;52350;51.546;7.002;2022-09-12T08:50:18;19.24;78.36
65652;SHT30;52350;51.546;7.002;2022-09-12T08:57:59;19.85;79.39
65652;SHT30;52350;51.546;7.002;2022-09-12T09:00:34;20.24;78.34
65652;SHT30;52350;51.546;7.002;2022-09-12T09:12:40;20.64;74.45
65652;SHT30;52350;51.546;7.002;2022-09-12T09:18:03;21.13;73.25
65652;SHT30;52350;51.546;7.002;2022-09-12T09:20:47;21.26;71.60
65652;SHT30;52350;51.546;7.002;2022-09-12T09:25:58;21.67;72.03
65652;SHT30;52350;51.546;7.002;2022-09-12T09:28:45;21.81;71.45
65652;SHT30;52350;51.546;7.002;2022-09-12T09:31:18;21.97;71.94
65652;SHT30;52350;51.546;7.002;2022-09-12T09:33:49;21.93;69.07
65652;SHT30;52350;51.546;7.002;2022-09-12T09:36:43;21.96;69.40
65652;SHT30;52350;51.546;7.002;2022-09-12T09:39:57;21.83;70.59
65652;SHT30;52350;51.546;7.002;2022-09-12T09:42:47;21.81;68.31
65652;SHT30;52350;51.546;7.002;2022-09-12T09:45:23;22.06;69.18
65652;SHT30;52350;51.546;7.002;2022-09-12T09:50:41;22.51;65.75
65652;SHT30;52350;51.546;7.002;2022-09-12T09:53:15;22.71;65.68
65652;SHT30;52350;51.546;7.002;2022-09-12T09:55:52;22.83;63.36
65652;SHT30;52350;51.546;7.002;2022-09-12T09:58:31;22.99;65.41
65652;SHT30;52350;51.546;7.002;2022-09-12T10:00:59;23.11;64.84
65652;SHT30;52350;51.546;7.002;2022-09-12T10:03:53;23.14;65.17
65652;SHT30;52350;51.546;7.002;2022-09-12T10:06:24;23.23;64.01
65652;SHT30;52350;51.546;7.002;2022-09-12T10:11:38;23.50;62.35
65652;SHT30;52350;51.546;7.002;2022-09-12T10:14:04;23.80;58.95
65652;SHT30;52350;51.546;7.002;2022-09-12T10:16:50;23.87;56.92
65652;SHT30;52350;51.546;7.002;2022-09-12T10:19:22;23.62;58.40
65652;SHT30;52350;51.546;7.002;2022-09-12T10:21:58;23.97;59.62
65652;SHT30;52350;51.546;7.002;2022-09-12T10:24:40;24.21;59.53
65652;SHT30;52350;51.546;7.002;2022-09-12T10:32:36;24.18;57.14
65652;SHT30;52350;51.546;7.002;2022-09-12T10:35:27;24.24;58.54
65652;SHT30;52350;51.546;7.002;2022-09-12T10:38:03;24.44;56.18
65652;SHT30;52350;51.546;7.002;2022-09-12T10:40:40;24.57;56.38
65652;SHT30;52350;51.546;7.002;2022-09-12T10:43:38;24.61;59.29
65652;SHT30;52350;51.546;7.002;2022-09-12T10:48:41;24.80;52.55
65652;SHT30;52350;51.546;7.002;2022-09-12T10:51:27;24.54;53.59
65652;SHT30;52350;51.546;7.002;2022-09-12T10:54:06;24.55;53.92
65652;SHT30;52350;51.546;7.002;2022-09-12T10:56:46;24.62;55.32
65652;SHT30;52350;51.546;7.002;2022-09-12T10:59:29;24.87;53.41
65652;SHT30;52350;51.546;7.002;2022-09-12T11:10:59;25.52;50.77
65652;SHT30;52350;51.546;7.002;2022-09-12T11:13:47;25.93;50.56
65652;SHT30;52350;51.546;7.002;2022-09-12T11:16:48;26.28;51.12
65652;SHT30;52350;51.546;7.002;2022-09-12T11:19:43;26.65;50.61
65652;SHT30;52350;51.546;7.002;2022-09-12T11:25:26;27.17;49.75
65652;SHT30;52350;51.546;7.002;2022-09-12T11:31:21;28.12;46.90
65652;SHT30;52350;51.546;7.002;2022-09-12T11:34:07;28.65;46.75
65652;SHT30;52350;51.546;7.002;2022-09-12T11:36:52;29.24;45.55
65652;SHT30;52350;51.546;7.002;2022-09-12T11:39:25;29.89;40.93
65652;SHT30;52350;51.546;7.002;2022-09-12T11:42:03;30.03;38.74
65652;SHT30;52350;51.546;7.002;2022-09-12T11:44:40;30.36;38.12
65652;SHT30;52350;51.546;7.002;2022-09-12T11:47:13;30.60;37.99
65652;SHT30;52350;51.546;7.002;2022-09-12T11:49:49;30.93;37.57
65652;SHT30;52350;51.546;7.002;2022-09-12T11:52:19;32.47;36.28
65652;SHT30;52350;51.546;7.002;2022-09-12T11:57:48;33.81;33.12
65652;SHT30;52350;51.546;7.002;2022-09-12T12:03:21;35.15;31.42
65652;SHT30;52350;51.546;7.002;2022-09-12T12:06:04;36.33;31.47
65652;SHT30;52350;51.546;7.002;2022-09-12T12:08:39;36.11;29.22
65652;SHT30;52350;51.546;7.002;2022-09-12T12:11:07;35.63;31.03
65652;SHT30;52350;51.546;7.002;2022-09-12T12:13:58;34.68;30.92
65652;SHT30;52350;51.546;7.002;2022-09-12T12:16:32;34.09;31.74
65652;SHT30;52350;51.546;7.002;2022-09-12T12:19:17;33.80;32.76
65652;SHT30;52350;51.546;7.002;2022-09-12T12:22:07;33.90;32.91
65652;SHT30;52350;51.546;7.002;2022-09-12T12:35:42;36.19;28.27
65652;SHT30;52350;51.546;7.002;2022-09-12T12:38:31;35.02;31.91
65652;SHT30;52350;51.546;7.002;2022-09-12T12:43:43;35.22;30.33
65652;SHT30;52350;51.546;7.002;2022-09-12T12:46:17;35.15;29.74
65652;SHT30;52350;51.546;7.002;2022-09-12T12:51:42;33.87;31.12
65652;SHT30;52350;51.546;7.002;2022-09-12T12:55:12;33.81;32.04
65652;SHT30;52350;51.546;7.002;2022-09-12T12:58:01;32.74;34.01
65652;SHT30;52350;51.546;7.002;2022-09-12T13:00:38;32.47;34.89
65652;SHT30;52350;51.546;7.002;2022-09-12T13:05:45;33.53;32.31
65652;SHT30;52350;51.546;7.002;2022-09-12T13:10:55;33.29;33.81
65652;SHT30;52350;51.546;7.002;2022-09-12T13:16:00;33.02;34.06
65652;SHT30;52350;51.546;7.002;2022-09-12T13:18:28;33.16;32.82
65652;SHT30;52350;51.546;7.002;2022-09-12T13:21:17;31.78;33.90
65652;SHT30;52350;51.546;7.002;2022-09-12T13:23:58;30.19;36.31
65652;SHT30;52350;51.546;7.002;2022-09-12T13:26:25;30.40;36.88
65652;SHT30;52350;51.546;7.002;2022-09-12T13:29:08;29.99;37.45
65652;SHT30;52350;51.546;7.002;2022-09-12T13:31:34;30.31;37.06
65652;SHT30;52350;51.546;7.002;2022-09-12T13:34:04;30.16;37.06
65652;SHT30;52350;51.546;7.002;2022-09-12T13:36:48;30.76;36.85
65652;SHT30;52350;51.546;7.002;2022-09-12T13:42:39;29.62;38.34
65652;SHT30;52350;51.546;7.002;2022-09-12T13:45:22;29.00;38.41
65652;SHT30;52350;51.546;7.002;2022-09-12T13:47:58;28.31;38.90
65652;SHT30;52350;51.546;7.002;2022-09-12T13:50:38;27.52;40.13
65652;SHT30;52350;51.546;7.002;2022-09-12T13:53:14;27.34;41.21
65652;SHT30;52350;51.546;7.002;2022-09-12T13:55:45;27.51;41.97
65652;SHT30;52350;51.546;7.002;2022-09-12T13:58:22;27.57;42.00
65652;SHT30;52350;51.546;7.002;2022-09-12T14:01:01;27.54;41.49
65652;SHT30;52350;51.546;7.002;2022-09-12T14:03:49;27.40;41.64
65652;SHT30;52350;51.546;7.002;2022-09-12T14:06:42;27.07;42.76
65652;SHT30;52350;51.546;7.002;2022-09-12T14:09:31;26.98;43.11
65652;SHT30;52350;51.546;7.002;2022-09-12T14:12:00;26.85;42.63
65652;SHT30;52350;51.546;7.002;2022-09-12T14:14:33;26.73;42.79
65652;SHT30;52350;51.546;7.002;2022-09-12T14:17:14;26.48;43.66
65652;SHT30;52350;51.546;7.002;2022-09-12T14:19:41;26.14;44.01
65652;SHT30;52350;51.546;7.002;2022-09-12T14:22:11;25.90;44.68
65652;SHT30;52350;51.546;7.002;2022-09-12T14:24:48;25.94;43.20
65652;SHT30;52350;51.546;7.002;2022-09-12T14:27:24;25.93;44.08
65652;SHT30;52350;51.546;7.002;2022-09-12T14:30:18;25.90;44.28
65652;SHT30;52350;51.546;7.002;2022-09-12T14:33:05;25.81;42.94
65652;SHT30;52350;51.546;7.002;2022-09-12T14:35:48;25.59;43.60
65652;SHT30;52350;51.546;7.002;2022-09-12T14:40:44;25.51;44.25
65652;SHT30;52350;51.546;7.002;2022-09-12T14:43:31;25.47;45.01
65652;SHT30;52350;51.546;7.002;2022-09-12T14:46:07;25.39;45.80
65652;SHT30;52350;51.546;7.002;2022-09-12T14:49:16;25.35;46.19
65652;SHT30;52350;51.546;7.002;2022-09-12T15:02:36;25.09;46.14
65652;SHT30;52350;51.546;7.002;2022-09-12T15:07:34;25.10;46.12
65652;SHT30;52350;51.546;7.002;2022-09-12T15:10:08;25.11;46.62
65652;SHT30;52350;51.546;7.002;2022-09-12T15:12:38;25.16;45.77
65652;SHT30;52350;51.546;7.002;2022-09-12T15:15:12;25.10;45.33
65652;SHT30;52350;51.546;7.002;2022-09-12T15:17:38;25.14;44.33
65652;SHT30;52350;51.546;7.002;2022-09-12T15:20:04;25.02;45.40
65652;SHT30;52350;51.546;7.002;2022-09-12T15:22:31;25.02;45.18
65652;SHT30;52350;51.546;7.002;2022-09-12T15:24:57;24.97;45.74
65652;SHT30;52350;51.546;7.002;2022-09-12T15:27:23;24.94;46.52
65652;SHT30;52350;51.546;7.002;2022-09-12T15:29:51;24.99;45.06
65652;SHT30;52350;51.546;7.002;2022-09-12T15:32:25;24.97;45.39
65652;SHT30;52350;51.546;7.002;2022-09-12T15:34:52;24.99;45.07
65652;SHT30;52350;51.546;7.002;2022-09-12T15:37:20;25.02;44.95
65652;SHT30;52350;51.546;7.002;2022-09-12T15:39:47;24.97;44.91
65652;SHT30;52350;51.546;7.002;2022-09-12T15:42:14;24.93;45.03
65652;SHT30;52350;51.546;7.002;2022-09-12T15:44:40;24.96;45.32
65652;SHT30;52350;51.546;7.002;2022-09-12T15:47:10;24.92;45.61
65652;SHT30;52350;51.546;7.002;2022-09-12T15:49:38;25.00;45.56
65652;SHT30;52350;51.546;7.002;2022-09-12T15:52:13;24.89;46.72
65652;SHT30;52350;51.546;7.002;2022-09-12T15:54:41;24.93;46.11
65652;SHT30;52350;51.546;7.002;2022-09-12T15:57:07;24.87;46.01
65652;SHT30;52350;51.546;7.002;2022-09-12T15:59:34;24.75;46.37
65652;SHT30;52350;51.546;7.002;2022-09-12T16:02:00;24.77;46.24
65652;SHT30;52350;51.546;7.002;2022-09-12T16:04:27;24.66;47.01
65652;SHT30;52350;51.546;7.002;2022-09-12T16:06:55;24.64;47.24
65652;SHT30;52350;51.546;7.002;2022-09-12T16:09:22;24.68;47.31
65652;SHT30;52350;51.546;7.002;2022-09-12T16:11:48;24.58;48.01
65652;SHT30;52350;51.546;7.002;2022-09-12T16:14:15;24.55;47.27
65652;SHT30;52350;51.546;7.002;2022-09-12T16:16:43;24.52;47.05
65652;SHT30;52350;51.546;7.002;2022-09-12T16:19:15;24.45;48.28
65652;SHT30;52350;51.546;7.002;2022-09-12T16:21:41;24.41;48.18
65652;SHT30;52350;51.546;7.002;2022-09-12T16:24:06;24.35;48.36
65652;SHT30;52350;51.546;7.002;2022-09-12T16:26:32;24.28;48.19
65652;SHT30;52350;51.546;7.002;2022-09-12T16:28:58;24.34;48.91
65652;SHT30;52350;51.546;7.002;2022-09-12T16:31:25;24.28;48.53
65652;SHT30;52350;51.546;7.002;2022-09-12T16:33:51;24.38;47.73
65652;SHT30;52350;51.546;7.002;2022-09-12T16:36:19;24.28;48.62
65652;SHT30;52350;51.546;7.002;2022-09-12T16:38:49;24.30;48.59
65652;SHT30;52350;51.546;7.002;2022-09-12T16:41:18;24.35;48.59
65652;SHT30;52350;51.546;7.002;2022-09-12T16:43:44;24.25;48.34
65652;SHT30;52350;51.546;7.002;2022-09-12T16:46:16;24.23;47.85
65652;SHT30;52350;51.546;7.002;2022-09-12T16:48:49;24.18;48.08
65652;SHT30;52350;51.546;7.002;2022-09-12T16:51:23;24.20;47.97
65652;SHT30;52350;51.546;7.002;2022-09-12T16:53:56;24.09;48.72
65652;SHT30;52350;51.546;7.002;2022-09-12T16:56:22;23.95;50.73
65652;SHT30;52350;51.546;7.002;2022-09-12T16:58:48;23.79;51.78
65652;SHT30;52350;51.546;7.002;2022-09-12T17:01:17;23.61;57.06
65652;SHT30;52350;51.546;7.002;2022-09-12T17:03:44;23.37;57.61
65652;SHT30;52350;51.546;7.002;2022-09-12T17:06:13;23.14;59.43
65652;SHT30;52350;51.546;7.002;2022-09-12T17:08:43;23.11;55.11
65652;SHT30;52350;51.546;7.002;2022-09-12T17:11:16;22.96;55.95
65652;SHT30;52350;51.546;7.002;2022-09-12T17:13:50;22.86;59.44
65652;SHT30;52350;51.546;7.002;2022-09-12T17:16:18;22.59;61.25
65652;SHT30;52350;51.546;7.002;2022-09-12T17:18:44;22.40;62.02
65652;SHT30;52350;51.546;7.002;2022-09-12T17:21:11;22.33;63.63
65652;SHT30;52350;51.546;7.002;2022-09-12T17:23:37;22.16;64.71
65652;SHT30;52350;51.546;7.002;2022-09-12T17:26:04;21.93;65.70
65652;SHT30;52350;51.546;7.002;2022-09-12T17:28:30;21.72;65.94
65652;SHT30;52350;51.546;7.002;2022-09-12T17:30:56;21.55;66.32
65652;SHT30;52350;51.546;7.002;2022-09-12T17:33:27;21.42;66.88
65652;SHT30;52350;51.546;7.002;2022-09-12T17:35:53;21.34;68.21
65652;SHT30;52350;51.546;7.002;2022-09-12T17:38:19;21.21;68.33
65652;SHT30;52350;51.546;7.002;2022-09-12T17:40:46;21.03;68.67
65652;SHT30;52350;51.546;7.002;2022-09-12T17:43:13;20.89;69.51
65652;SHT30;52350;51.546;7.002;2022-09-12T17:45:39;20.77;69.96
65652;SHT30;52350;51.546;7.002;2022-09-12T17:48:06;20.62;70.49
65652;SHT30;52350;51.546;7.002;2022-09-12T17:50:39;20.49;71.14
65652;SHT30;52350;51.546;7.002;2022-09-12T17:53:07;20.48;71.33
65652;SHT30;52350;51.546;7.002;2022-09-12T17:55:35;20.34;71.98
65652;SHT30;52350;51.546;7.002;2022-09-12T17:58:01;20.23;72.10
65652;SHT30;52350;51.546;7.002;2022-09-12T18:00:28;20.01;72.73
65652;SHT30;52350;51.546;7.002;2022-09-12T18:03:14;19.79;73.70
65652;SHT30;52350;51.546;7.002;2022-09-12T18:05:47;19.63;74.39
65652;SHT30;52350;51.546;7.002;2022-09-12T18:08:16;19.52;74.56
65652;SHT30;52350;51.546;7.002;2022-09-12T18:10:44;19.38;74.80
65652;SHT30;52350;51.546;7.002;2022-09-12T18:13:10;19.25;75.22
65652;SHT30;52350;51.546;7.002;2022-09-12T18:15:36;19.17;75.44
65652;SHT30;52350;51.546;7.002;2022-09-12T18:18:03;19.10;75.52
65652;SHT30;52350;51.546;7.002;2022-09-12T18:20:30;19.00;76.02
65652;SHT30;52350;51.546;7.002;2022-09-12T18:22:56;18.93;75.96
65652;SHT30;52350;51.546;7.002;2022-09-12T18:25:22;18.95;75.59
65652;SHT30;52350;51.546;7.002;2022-09-12T18:27:47;18.87;75.67
65652;SHT30;52350;51.546;7.002;2022-09-12T18:30:13;18.85;75.44
65652;SHT30;52350;51.546;7.002;2022-09-12T18:32:44;18.70;75.84